Latest Weather Observations for Mount Boyce

IDN60901

Issued at 7:11 pm EDT Monday 8 February 2016 (issued every 10 minutes, with the page automatically refreshed every 10 minutes)

About weather observations | Map of Sydney area stations | Latest observations for Sydney area | Other Formats
Station Details ID: 063292 Name: MOUNT BOYCE AWS Lat: -33.62 Lon: 150.27 Height: 1080.0 m
Data from the previous 72 hours. | See also: Recent months at Mount Boyce
Date/Time
EDT
Tmp

°C
App
Tmp
°C
Dew
Point
°C
Rel
Hum
%
Delta-T

°C
Wind Press
QNH
hPa
Press
MSL
hPa
Rain
since
9 am
mm
Dir
 
Spd
km/h
Gust
km/h
Spd
kts
Gust
kts
08/07:00pm 21.5 20.9 11.8 54 5.7 E 6 13 3 7 - - 0.0
08/06:30pm 22.1 20.9 11.5 51 6.2 E 9 17 5 9 - - 0.0
08/06:00pm 23.1 22.0 11.8 49 6.7 E 9 17 5 9 - - 0.0
08/05:30pm 23.4 22.2 11.5 47 7.0 ESE 9 15 5 8 - - 0.0
08/05:00pm 23.5 22.0 10.6 44 7.5 E 9 19 5 10 - - 0.0
08/04:30pm 23.1 21.5 10.2 44 7.4 ESE 9 13 5 7 - - 0.0
08/04:00pm 24.6 23.8 12.9 48 7.1 SE 9 15 5 8 - - 0.0
08/03:30pm 23.8 22.7 12.1 48 7.0 E 9 15 5 8 - - 0.0
08/03:00pm 23.6 22.7 12.6 50 6.6 ENE 9 17 5 9 - - 0.0
08/02:30pm 24.0 23.4 13.5 52 6.4 E 9 17 5 9 - - 0.0
08/02:00pm 23.3 22.4 12.6 51 6.4 ENE 9 15 5 8 - - 0.0
08/01:30pm 22.5 21.5 12.2 52 6.1 E 9 17 5 9 - - 0.0
08/01:00pm 22.6 21.8 12.8 54 5.9 E 9 20 5 11 - - 0.0
08/12:30pm 21.9 20.9 12.2 54 5.8 E 9 15 5 8 - - 0.0
08/12:00pm 21.6 21.6 13.5 60 4.9 E 6 11 3 6 - - 0.0
08/11:30am 20.9 20.5 12.3 58 5.1 SE 6 13 3 7 - - 0.0
08/11:00am 20.2 19.9 13.2 64 4.2 ENE 7 13 4 7 - - 0.0
08/10:30am 19.0 18.7 12.7 67 3.7 ESE 6 9 3 5 - - 0.0
08/10:00am 18.0 17.8 13.1 73 2.9 E 6 13 3 7 - - 0.0
08/09:30am 17.1 17.3 14.2 83 1.7 ESE 6 13 3 7 - - 0.0
08/09:22am 16.6 17.1 14.1 85 1.5 E 4 11 2 6 - - 0.0
08/09:19am 16.3 16.7 13.8 85 1.5 E 4 11 2 6 - - 0.0
08/09:00am 14.5 15.4 13.9 96 0.4 WSW 2 7 1 4 - - 0.2
08/08:33am 13.6 14.2 13.1 97 0.3 WSW 2 6 1 3 - - 0.2
08/08:30am 13.5 14.1 13.0 97 0.3 WSW 2 6 1 3 - - 0.2
08/08:23am 13.6 14.6 13.1 97 0.3 CALM 0 0 0 0 - - 0.2
08/08:00am 13.0 13.8 12.5 97 0.3 CALM 0 4 0 2 - - 0.2
08/07:55am 12.9 13.7 12.6 98 0.2 CALM 0 6 0 3 - - 0.2
08/07:52am 13.0 13.8 12.7 98 0.2 CALM 0 7 0 4 - - 0.2
08/07:30am 11.9 12.4 11.6 98 0.2 CALM 0 0 0 0 - - 0.2
08/07:20am 11.9 12.3 11.4 97 0.3 CALM 0 0 0 0 - - 0.2
08/07:11am 11.8 12.2 11.2 96 0.3 CALM 0 0 0 0 - - 0.2
08/07:00am 11.9 12.2 11.0 94 0.5 CALM 0 0 0 0 - - 0.2
08/06:30am 12.2 11.6 11.6 96 0.3 SSE 6 9 3 5 - - 0.2
08/06:25am 12.1 11.5 11.6 97 0.3 SSE 6 9 3 5 - - 0.2
08/06:00am 11.8 12.2 11.2 96 0.3 CALM 0 0 0 0 - - 0.2
08/05:30am 12.3 11.7 11.7 96 0.3 SSE 6 9 3 5 - - 0.2
08/05:00am 12.3 11.6 11.5 95 0.4 SE 6 7 3 4 - - 0.2
08/04:30am 12.4 11.8 11.8 96 0.3 SSE 6 7 3 4 - - 0.2
08/04:00am 12.2 12.0 11.7 97 0.3 SE 4 9 2 5 - - 0.2
08/03:54am 12.3 12.5 11.8 97 0.3 ESE 2 7 1 4 - - 0.2
08/03:53am 12.3 12.5 11.8 97 0.3 ESE 2 7 1 4 - - 0.2
08/03:30am 12.2 12.4 11.7 97 0.3 ENE 2 6 1 3 - - 0.2
08/03:00am 12.4 12.6 11.9 97 0.3 ENE 2 7 1 4 - - 0.2
08/02:40am 12.4 12.6 11.8 96 0.3 ENE 2 7 1 4 - - 0.2
08/02:30am 12.4 12.5 11.6 95 0.4 ENE 2 7 1 4 - - 0.2
08/02:04am 12.7 13.2 11.6 93 0.6 CALM 0 0 0 0 - - 0.2
08/02:03am 12.7 13.2 11.6 93 0.6 CALM 0 0 0 0 - - 0.2
08/02:00am 12.8 13.3 11.7 93 0.6 CALM 0 0 0 0 - - 0.2
08/01:45am 13.0 13.7 12.1 94 0.5 CALM 0 2 0 1 - - 0.2
08/01:36am 13.2 13.9 12.3 94 0.5 CALM 0 2 0 1 - - 0.2
08/01:30am 13.1 13.3 12.0 93 0.6 E 2 7 1 4 - - 0.2
08/01:18am 13.3 13.9 12.0 92 0.7 CALM 0 6 0 3 - - 0.2
08/01:00am 13.8 14.6 12.7 93 0.6 CALM 0 6 0 3 - - 0.2
08/12:30am 14.1 14.7 13.0 93 0.6 E 2 9 1 5 - - 0.2
08/12:00am 14.6 14.6 13.5 93 0.6 ENE 6 13 3 7 - - 0.2
 
Date/Time
EDT
Tmp

°C
App
Tmp
°C
Dew
Point
°C
Rel
Hum
%
Delta-T

°C
Wind Press
QNH
hPa
Press
MSL
hPa
Rain
since
9 am
mm
Dir
 
Spd
km/h
Gust
km/h
Spd
kts
Gust
kts
07/11:30pm 14.8 15.1 13.5 92 0.8 E 4 9 2 5 - - 0.2
07/11:00pm 14.9 14.9 13.6 92 0.8 ENE 6 11 3 6 - - 0.2
07/10:30pm 15.1 15.0 14.0 93 0.7 E 7 11 4 6 - - 0.2
07/10:00pm 15.0 14.5 13.9 93 0.7 ENE 9 15 5 8 - - 0.2
07/09:30pm 15.1 14.5 13.6 91 0.9 ENE 9 15 5 8 - - 0.2
07/09:13pm 15.1 14.5 13.5 90 0.9 ENE 9 13 5 7 - - 0.2
07/09:12pm 15.1 14.5 13.5 90 0.9 ENE 9 13 5 7 - - 0.2
07/09:01pm 15.3 14.7 13.5 89 1.1 ENE 9 15 5 8 - - 0.2
07/09:00pm 15.3 14.7 13.5 89 1.1 ENE 9 15 5 8 - - 0.2
07/08:30pm 16.1 15.2 13.6 85 1.5 ENE 11 17 6 9 - - 0.2
07/08:17pm 16.4 15.4 13.5 83 1.7 ENE 11 19 6 10 - - 0.2
07/08:00pm 17.0 16.3 13.3 79 2.2 ENE 9 17 5 9 - - 0.2
07/07:56pm 17.2 16.5 13.3 78 2.3 ENE 9 17 5 9 - - 0.2
07/07:30pm 18.6 18.1 13.7 73 2.9 ENE 9 15 5 8 - - 0.2
07/07:00pm 19.5 19.1 14.1 71 3.3 E 9 17 5 9 - - 0.2
07/06:30pm 20.0 19.5 13.7 67 3.8 E 9 15 5 8 - - 0.2
07/06:00pm 21.0 20.9 13.9 64 4.3 E 7 15 4 8 - - 0.2
07/05:30pm 21.7 21.3 14.1 62 4.6 E 9 17 5 9 - - 0.2
07/05:00pm 21.8 21.3 13.9 61 4.8 E 9 20 5 11 - - 0.2
07/04:30pm 21.9 21.1 13.0 57 5.3 E 9 15 5 8 - - 0.2
07/04:00pm 21.6 20.9 13.2 59 5.1 E 9 19 5 10 - - 0.2
07/03:30pm 21.5 21.1 12.9 58 5.2 E 7 19 4 10 - - 0.2
07/03:00pm 21.7 20.8 12.5 56 5.5 ESE 9 15 5 8 - - 0.2
07/02:30pm 20.8 20.0 12.8 60 4.8 ENE 9 17 5 9 - - 0.2
07/02:00pm 18.7 17.7 12.2 66 3.8 ENE 9 13 5 7 - - 0.2
07/01:30pm 18.4 17.8 12.2 67 3.6 ENE 7 13 4 7 - - 0.2
07/01:00pm 19.4 19.0 12.4 64 4.1 NE 6 13 3 7 - - 0.2
07/12:30pm 20.2 19.3 12.7 62 4.5 ENE 9 17 5 9 - - 0.2
07/12:00pm 18.3 17.4 12.5 69 3.4 E 9 17 5 9 - - 0.0
07/11:30am 19.0 19.0 14.3 74 2.9 NE 7 17 4 9 - - 0.0
07/11:00am 16.4 16.0 12.9 80 2.1 ENE 7 13 4 7 - - 0.0
07/10:30am 15.7 15.0 13.2 85 1.5 ENE 9 17 5 9 - - 0.0
07/10:00am 15.0 14.9 14.0 94 0.6 E 7 15 4 8 - - 0.0
07/09:59am 15.1 15.1 14.1 94 0.6 E 7 15 4 8 - - 0.0
07/09:30am 13.9 13.7 13.0 94 0.5 E 6 11 3 6 - - 0.0
07/09:17am 13.9 13.4 12.8 93 0.6 E 7 15 4 8 - - 0.0
07/09:00am 14.1 14.3 13.0 93 0.6 E 4 11 2 6 - - 3.0
07/08:30am 13.6 13.1 12.8 95 0.5 E 7 17 4 9 - - 3.0
07/08:00am 13.2 12.7 12.7 97 0.3 E 7 19 4 10 - - 3.0
07/07:30am 12.8 12.2 12.3 97 0.3 E 7 17 4 9 - - 3.0
07/07:00am 12.5 12.4 12.0 97 0.3 E 4 13 2 7 - - 3.0
07/06:47am 12.5 12.0 12.0 97 0.3 ENE 6 11 3 6 - - 3.0
07/06:30am 12.5 11.9 12.2 98 0.2 E 7 19 4 10 - - 3.0
07/06:02am 12.4 11.7 11.9 97 0.3 E 7 15 4 8 - - 3.0
07/06:00am 12.4 11.7 11.9 97 0.3 E 7 15 4 8 - - 3.0
07/05:30am 12.4 11.7 11.9 97 0.3 E 7 13 4 7 - - 3.0
07/05:00am 12.4 11.9 11.9 97 0.3 E 6 17 3 9 - - 3.0
07/04:35am 12.5 11.8 12.0 97 0.3 E 7 15 4 8 - - 3.0
07/04:30am 12.5 11.8 12.0 97 0.3 E 7 20 4 11 - - 3.0
07/04:07am 12.5 11.8 12.0 97 0.3 E 7 15 4 8 - - 3.0
07/04:00am 12.4 11.9 11.9 97 0.3 E 6 13 3 7 - - 3.0
07/03:59am 12.4 11.9 11.9 97 0.3 E 6 13 3 7 - - 3.0
07/03:35am 12.5 11.8 12.0 97 0.3 E 7 20 4 11 - - 3.0
07/03:30am 12.4 11.3 11.9 97 0.3 E 9 20 5 11 - - 3.0
07/03:00am 12.5 12.0 12.0 97 0.3 E 6 11 3 6 - - 3.0
07/02:30am 12.5 11.8 12.0 97 0.3 ENE 7 13 4 7 - - 3.0
07/02:00am 12.4 11.3 11.9 97 0.3 E 9 13 5 7 - - 3.0
07/01:30am 12.4 11.7 11.9 97 0.3 E 7 15 4 8 - - 3.0
07/01:00am 12.5 11.4 11.9 96 0.3 E 9 17 5 9 - - 3.0
07/12:30am 12.6 11.5 12.0 96 0.3 E 9 22 5 12 - - 3.0
07/12:00am 12.6 11.9 12.0 96 0.3 E 7 15 4 8 - - 3.0
 
Date/Time
EDT
Tmp

°C
App
Tmp
°C
Dew
Point
°C
Rel
Hum
%
Delta-T

°C
Wind Press
QNH
hPa
Press
MSL
hPa
Rain
since
9 am
mm
Dir
 
Spd
km/h
Gust
km/h
Spd
kts
Gust
kts
06/11:30pm 12.6 11.5 12.0 96 0.3 E 9 17 5 9 - - 3.0
06/11:00pm 12.7 11.6 12.1 96 0.3 E 9 17 5 9 - - 3.0
06/10:30pm 12.8 11.4 12.3 97 0.3 E 11 28 6 15 - - 3.0
06/10:12pm 12.9 11.6 12.4 97 0.3 E 11 20 6 11 - - 3.0
06/10:00pm 13.0 12.1 12.5 97 0.3 ESE 9 20 5 11 - - 3.0
06/09:30pm 13.1 11.4 12.6 97 0.3 E 13 30 7 16 - - 3.0
06/09:11pm 13.2 12.3 12.6 96 0.3 ENE 9 19 5 10 - - 3.0
06/09:07pm 13.2 12.3 12.6 96 0.3 ENE 9 20 5 11 - - 3.0
06/09:00pm 13.2 11.9 12.6 96 0.3 ENE 11 20 6 11 - - 3.0
06/08:49pm 13.3 12.4 12.7 96 0.3 E 9 28 5 15 - - 3.0
06/08:30pm 13.3 12.4 12.5 95 0.5 E 9 26 5 14 - - 3.0
06/08:00pm 13.6 12.3 12.5 93 0.6 E 11 20 6 11 - - 3.0
06/07:30pm 14.5 14.4 13.9 96 0.4 E 7 17 4 9 - - 3.0
06/07:00pm 14.2 13.3 13.7 97 0.3 E 11 20 6 11 - - 3.0
06/06:51pm 14.1 13.1 13.5 96 0.4 E 11 22 6 12 - - 3.0
06/06:30pm 14.2 13.7 13.7 97 0.3 E 9 17 5 9 - - 2.8
06/06:00pm 14.2 12.8 13.4 95 0.5 E 13 24 7 13 - - 2.4
06/05:30pm 14.5 13.7 13.9 96 0.4 E 11 22 6 12 - - 2.4
06/05:00pm 14.8 14.1 14.2 96 0.4 E 11 22 6 12 - - 2.4
06/04:30pm 14.8 13.9 13.8 94 0.6 E 11 20 6 11 - - 2.4
06/04:00pm 15.0 14.9 13.9 93 0.7 E 7 15 4 8 - - 1.4
06/03:59pm 15.1 15.2 14.0 93 0.7 E 6 15 3 8 - - 1.4
06/03:50pm 15.4 15.5 14.4 94 0.6 E 7 19 4 10 - - 1.4
06/03:30pm 15.3 14.9 14.2 93 0.7 E 9 17 5 9 - - 1.4
06/03:01pm 15.6 15.3 14.5 93 0.7 E 9 22 5 12 - - 1.2
06/03:00pm 15.5 15.2 14.4 93 0.7 E 9 22 5 12 - - 1.2
06/02:30pm 15.8 15.2 14.5 92 0.8 E 11 17 6 9 - - 1.2
06/02:24pm 15.9 15.4 14.8 93 0.7 E 11 20 6 11 - - 1.2
06/02:13pm 15.6 14.6 14.5 93 0.7 E 13 22 7 12 - - 1.2
06/02:07pm 15.3 14.1 14.0 92 0.8 E 13 22 7 12 - - 1.2
06/02:00pm 15.1 14.1 13.5 90 0.9 ESE 11 22 6 12 - - 1.2
06/01:52pm 15.3 15.1 13.5 89 1.1 ESE 7 15 4 8 - - 1.2
06/01:30pm 15.6 14.9 14.3 92 0.8 E 11 22 6 12 - - 1.2
06/01:12pm 15.4 15.2 14.6 95 0.5 E 9 20 5 11 - - 1.2
06/01:00pm 15.5 15.0 14.9 96 0.4 E 11 26 6 14 - - 1.2
06/12:30pm 15.1 14.8 14.3 95 0.5 E 9 19 5 10 - - 1.0
06/12:00pm 15.1 14.5 14.6 97 0.3 E 11 28 6 15 - - 0.6
06/11:30am 14.5 14.4 13.9 96 0.4 ESE 7 19 4 10 - - 0.4
06/11:00am 14.0 13.4 13.4 96 0.4 E 9 19 5 10 - - 0.2
06/10:30am 13.7 12.9 12.9 95 0.5 E 9 20 5 11 - - 0.2
06/10:00am 13.6 12.7 12.5 93 0.6 ESE 9 20 5 11 - - 0.0
06/09:41am 13.9 13.1 11.8 87 1.2 E 7 19 4 10 - - 0.0
06/09:30am 13.8 12.7 11.8 88 1.1 E 9 17 5 9 - - 0.0
06/09:00am 13.1 11.9 11.7 91 0.8 ESE 9 19 5 10 - - 0.0
06/08:30am 12.5 11.3 11.6 94 0.5 ESE 9 19 5 10 - - 0.0
06/08:00am 12.2 10.9 11.4 95 0.4 E 9 19 5 10 - - 0.0
06/07:30am 12.0 9.9 11.2 95 0.4 ESE 13 28 7 15 - - 0.0
06/07:00am 11.8 10.0 11.0 95 0.4 E 11 22 6 12 - - 0.0
06/06:30am 11.7 10.3 10.9 95 0.4 ESE 9 22 5 12 - - 0.0
06/06:00am 11.5 10.0 10.7 95 0.4 ESE 9 19 5 10 - - 0.0
06/05:30am 11.4 9.5 10.6 95 0.4 ESE 11 20 6 11 - - 0.0
06/05:00am 11.4 9.1 10.5 94 0.5 ESE 13 22 7 12 - - 0.0
06/04:30am 11.3 9.0 10.4 94 0.5 ESE 13 24 7 13 - - 0.0
06/04:00am 11.3 9.4 10.4 94 0.5 ESE 11 24 6 13 - - 0.0
06/03:30am 11.4 9.5 10.6 95 0.4 ESE 11 20 6 11 - - 0.0
06/03:00am 11.5 9.3 10.9 96 0.3 ESE 13 24 7 13 - - 0.0
06/02:30am 11.4 8.4 10.6 95 0.4 ESE 17 28 9 15 - - 0.0
06/02:12am 11.5 9.0 10.9 96 0.3 ESE 15 32 8 17 - - 0.0
06/02:00am 11.8 10.1 11.3 97 0.3 ESE 11 22 6 12 - - 0.0
06/01:30am 11.9 9.8 11.3 96 0.3 E 13 24 7 13 - - 0.0
06/01:16am 11.9 10.2 11.1 95 0.4 ESE 11 22 6 12 - - 0.0
06/01:00am 11.9 9.8 11.0 94 0.5 E 13 26 7 14 - - 0.0
06/12:30am 11.8 9.9 10.5 92 0.7 E 11 19 6 10 - - 0.0
06/12:11am 11.7 9.8 10.6 93 0.6 ESE 11 28 6 15 - - 0.0
06/12:00am 11.5 9.6 10.4 93 0.6 E 11 20 6 11 - - 0.0
 
Date/Time
EDT
Tmp

°C
App
Tmp
°C
Dew
Point
°C
Rel
Hum
%
Delta-T

°C
Wind Press
QNH
hPa
Press
MSL
hPa
Rain
since
9 am
mm
Dir
 
Spd
km/h
Gust
km/h
Spd
kts
Gust
kts
05/11:45pm 11.3 8.9 10.0 92 0.7 E 13 24 7 13 - - 0.0
05/11:30pm 11.4 9.4 10.1 92 0.7 ESE 11 20 6 11 - - 0.0
05/11:00pm 12.0 9.0 10.6 91 0.8 ESE 17 28 9 15 - - 0.0
05/10:30pm 12.1 10.3 10.8 92 0.7 ESE 11 24 6 13 - - 0.0
05/10:00pm 12.3 10.5 11.0 92 0.7 ESE 11 26 6 14 - - 0.0
05/09:30pm 12.4 10.1 10.6 89 1.0 ESE 13 24 7 13 - - 0.0
05/09:00pm 12.6 10.3 10.5 87 1.2 ESE 13 26 7 14 - - 0.0
05/08:30pm 12.8 10.6 10.7 87 1.2 E 13 24 7 13 - - 0.0
05/08:21pm 12.7 10.8 10.6 87 1.2 E 11 24 6 13 - - 0.0
05/08:00pm 12.6 10.2 10.0 84 1.4 ESE 13 26 7 14 - - 0.0
05/07:30pm 13.2 10.4 10.0 81 1.7 E 15 30 8 16 - - 0.0

Latest Capital City Observations: Canberra | Sydney | Melbourne | Brisbane | Adelaide | Perth | Hobart | Darwin

Other Formats:

Comma delimited format used in spreadsheet applications
http://www.bom.gov.au/fwo/IDN60901/IDN60901.94743.axf

JavaScript Object Notation format (JSON) in row-major order
http://www.bom.gov.au/fwo/IDN60901/IDN60901.94743.json